createdAt,value
2016-11-11T08:11:14.747Z,1009
2016-11-11T08:12:17.875Z,1009
2016-11-11T08:13:21.003Z,1009
2016-11-11T08:14:24.124Z,1009
2016-11-11T08:15:27.245Z,1009
2016-11-11T08:16:30.375Z,1009
2016-11-11T08:17:33.497Z,1009
2016-11-11T08:18:36.622Z,1009
2016-11-11T08:19:39.746Z,1009
2016-11-11T08:20:42.873Z,1009
2016-11-11T08:21:46.006Z,1009
2016-11-11T08:22:49.128Z,1009
2016-11-11T08:23:52.257Z,1009
2016-11-11T08:24:55.381Z,1009
2016-11-11T08:25:58.503Z,1009
2016-11-11T08:27:01.634Z,1009
2016-11-11T08:28:04.764Z,1009
2016-11-11T08:29:07.889Z,1009
2016-11-11T08:30:11.015Z,1009
2016-11-11T08:31:14.140Z,1009
2016-11-11T08:32:17.266Z,1009
2016-11-11T08:33:20.403Z,1009
2016-11-11T08:34:23.521Z,1009
2016-11-11T08:35:26.644Z,1009
2016-11-11T08:36:29.780Z,1009
2016-11-11T08:37:32.902Z,1009
2016-11-11T08:38:36.020Z,1009
2016-11-11T08:39:39.146Z,1009
2016-11-11T08:40:42.270Z,1009
2016-11-11T08:41:45.403Z,1009
2016-11-11T08:42:48.519Z,1009
2016-11-11T08:43:51.649Z,1010
2016-11-11T08:44:54.772Z,1009
2016-11-11T08:45:57.900Z,1009
2016-11-11T08:47:01.025Z,1009
2016-11-11T08:48:04.148Z,1009
2016-11-11T08:49:07.271Z,1010
2016-11-11T08:50:10.391Z,1009
2016-11-11T08:51:13.523Z,1010
2016-11-11T08:52:16.651Z,1010
2016-11-11T08:53:19.777Z,1010
2016-11-11T08:54:22.896Z,1010
2016-11-11T08:55:26.027Z,1010
2016-11-11T08:56:29.148Z,1010
2016-11-11T08:57:32.284Z,1010
2016-11-11T08:58:35.411Z,1010
2016-11-11T08:59:38.540Z,1010
2016-11-11T09:00:41.664Z,1010
2016-11-11T09:01:44.787Z,1010
2016-11-11T09:02:47.910Z,1010
2016-11-11T09:03:51.037Z,1010
2016-11-11T09:04:54.157Z,1010
2016-11-11T09:05:57.291Z,1010
2016-11-11T09:07:00.418Z,1010
2016-11-11T09:08:03.542Z,1010
2016-11-11T09:09:06.661Z,1010
2016-11-11T09:10:09.795Z,1010
2016-11-11T09:11:12.924Z,1010
2016-11-11T09:12:16.052Z,1010
2016-11-11T09:13:19.180Z,1010
2016-11-11T09:14:22.290Z,1010
2016-11-11T09:15:25.413Z,1010
2016-11-11T09:16:28.540Z,1010
2016-11-11T09:17:31.672Z,1010
2016-11-11T09:18:34.799Z,1010
2016-11-11T09:19:37.923Z,1010
2016-11-11T09:20:41.044Z,1010
2016-11-11T09:21:44.168Z,1010
2016-11-11T09:22:47.297Z,1010
2016-11-11T09:23:50.421Z,1010
2016-11-11T09:24:53.547Z,1010
2016-11-11T09:25:56.677Z,1010
2016-11-11T09:26:59.808Z,1010
2016-11-11T09:28:02.930Z,1010
2016-11-11T09:29:06.053Z,1010
2016-11-11T09:30:09.180Z,1010
2016-11-11T09:31:12.301Z,1010
2016-11-11T09:32:15.422Z,1010
2016-11-11T09:33:18.544Z,1010
2016-11-11T09:34:21.666Z,1010
2016-11-11T09:35:24.792Z,1010
2016-11-11T09:36:27.915Z,1010
2016-11-11T09:37:31.044Z,1010
2016-11-11T09:38:34.171Z,1010
2016-11-11T09:39:37.297Z,1010
2016-11-11T09:40:40.435Z,1010
2016-11-11T09:41:43.550Z,1010
2016-11-11T09:42:46.673Z,1010
2016-11-11T09:43:49.795Z,1010
2016-11-11T09:44:52.926Z,1010
2016-11-11T09:45:56.046Z,1010
2016-11-11T09:46:59.175Z,1010
2016-11-11T09:48:02.302Z,1010
2016-11-11T09:49:05.431Z,1010
2016-11-11T09:50:08.554Z,1010
2016-11-11T09:51:11.687Z,1010
2016-11-11T09:52:14.811Z,1010
2016-11-11T09:53:17.936Z,1010
2016-11-11T09:54:21.059Z,1010
2016-11-11T09:55:24.184Z,1010
2016-11-11T09:56:27.309Z,1010
2016-11-11T09:57:30.434Z,1010
2016-11-11T09:58:33.557Z,1010
2016-11-11T09:59:36.677Z,1010
2016-11-11T10:00:39.806Z,1011
2016-11-11T10:01:42.926Z,1010
2016-11-11T10:02:46.046Z,1011
2016-11-11T10:03:49.173Z,1010
2016-11-11T10:04:52.306Z,1011
2016-11-11T10:05:55.435Z,1011
2016-11-11T10:06:58.555Z,1011
2016-11-11T10:08:01.680Z,1011
2016-11-11T10:09:04.809Z,1011
2016-11-11T10:10:07.923Z,1011
2016-11-11T10:11:11.041Z,1011
2016-11-11T10:12:14.171Z,1010
2016-11-11T10:13:17.296Z,1011
2016-11-11T10:14:20.416Z,1011
2016-11-11T10:15:23.545Z,1011
2016-11-11T10:16:26.670Z,1011
2016-11-11T10:17:29.797Z,1011
2016-11-11T10:18:32.915Z,1011
2016-11-11T10:19:36.046Z,1011
2016-11-11T10:20:39.175Z,1011
2016-11-11T10:21:42.300Z,1011
2016-11-11T10:22:45.424Z,1011
2016-11-11T10:23:48.551Z,1011
2016-11-11T10:24:51.672Z,1011
2016-11-11T10:25:54.802Z,1011
2016-11-11T10:26:57.927Z,1011
2016-11-11T10:28:01.052Z,1011
2016-11-11T10:29:04.174Z,1011
2016-11-11T10:30:07.308Z,1011
2016-11-11T10:31:10.431Z,1011
2016-11-11T10:32:13.550Z,1011
2016-11-11T10:33:16.675Z,1011
2016-11-11T10:34:19.809Z,1011
2016-11-11T10:35:22.932Z,1011
2016-11-11T10:36:26.056Z,1011
2016-11-11T10:37:29.190Z,1011
2016-11-11T10:38:32.310Z,1011
2016-11-11T10:39:35.431Z,1011
2016-11-11T10:40:38.557Z,1011
2016-11-11T10:41:41.686Z,1011
2016-11-11T10:42:44.808Z,1011
2016-11-11T10:43:47.939Z,1011
2016-11-11T10:44:51.064Z,1011
2016-11-11T10:45:54.191Z,1011
2016-11-11T10:46:57.310Z,1011
2016-11-11T10:48:00.435Z,1011
2016-11-11T10:49:03.562Z,1011
2016-11-11T10:50:06.696Z,1011
2016-11-11T10:51:09.821Z,1011
2016-11-11T10:52:12.944Z,1011
2016-11-11T10:53:16.064Z,1011
2016-11-11T10:54:19.194Z,1011
2016-11-11T10:55:22.323Z,1011
2016-11-11T10:56:25.443Z,1011
2016-11-11T10:57:28.565Z,1011
2016-11-11T10:58:31.693Z,1011
2016-11-11T10:59:35.106Z,1011
2016-11-11T11:00:38.233Z,1011
2016-11-11T11:01:41.363Z,1011
2016-11-11T11:02:44.501Z,1011
2016-11-11T11:03:47.620Z,1011
2016-11-11T11:04:50.747Z,1011
2016-11-11T11:05:53.873Z,1011
2016-11-11T11:06:56.998Z,1011
2016-11-11T11:08:00.120Z,1011
2016-11-11T11:09:03.244Z,1011
2016-11-11T11:11:14.980Z,1011
2016-11-11T11:13:28.269Z,1011
2016-11-11T11:15:41.560Z,1011
2016-11-11T11:16:44.689Z,1011
2016-11-11T11:17:47.819Z,1011
2016-11-11T11:20:01.238Z,1011
2016-11-11T11:22:15.821Z,1011
2016-11-11T11:23:18.949Z,1011
2016-11-11T11:24:22.082Z,1011
2016-11-11T11:26:36.793Z,1011
2016-11-11T12:22:45.745Z,1012
2016-11-11T12:23:48.877Z,1012
2016-11-11T12:24:52.013Z,1012
2016-11-11T12:25:55.140Z,1012
2016-11-11T12:26:58.260Z,1011
2016-11-11T12:28:01.387Z,1010
2016-11-11T12:29:04.510Z,1010
2016-11-11T12:30:07.642Z,1010
2016-11-11T12:31:10.760Z,1010
2016-11-11T12:32:13.895Z,1010
2016-11-11T12:33:17.028Z,1011
2016-11-11T12:34:20.154Z,1011
2016-11-11T12:35:23.312Z,1012
2016-11-11T12:36:26.430Z,1012
2016-11-11T12:37:29.555Z,1012
2016-11-11T12:38:32.684Z,1012
2016-11-11T12:39:35.813Z,1012
2016-11-11T12:40:38.942Z,1012
2016-11-11T12:41:42.071Z,1012
2016-11-11T12:42:45.199Z,1012
2016-11-11T12:43:48.329Z,1012
2016-11-11T12:44:51.463Z,1012
2016-11-11T12:45:54.586Z,1012
2016-11-11T12:46:57.702Z,1012
2016-11-11T12:48:00.823Z,1012
2016-11-11T12:49:03.955Z,1012
2016-11-11T12:50:07.072Z,1012
2016-11-11T12:51:10.205Z,1012
2016-11-11T12:52:13.334Z,1012
2016-11-11T12:53:16.467Z,1012
2016-11-11T12:54:19.883Z,1012
2016-11-11T12:55:23.014Z,1012
2016-11-11T12:56:26.144Z,1012
2016-11-11T12:57:29.274Z,1011
2016-11-11T12:58:32.398Z,1011
2016-11-11T12:59:35.525Z,1012
2016-11-11T13:00:38.645Z,1012
2016-11-11T13:01:41.762Z,1012
2016-11-11T13:02:44.891Z,1011
2016-11-11T13:03:48.018Z,1011
2016-11-11T13:04:51.147Z,1011
2016-11-11T13:05:54.262Z,1011
2016-11-11T13:06:57.385Z,1012
2016-11-11T13:08:00.503Z,1012
2016-11-11T13:09:03.644Z,1012
2016-11-11T13:10:06.765Z,1012
2016-11-11T13:11:09.894Z,1012
2016-11-11T13:12:13.010Z,1012
2016-11-11T13:13:16.145Z,1012
2016-11-11T13:14:19.268Z,1012
2016-11-11T13:15:22.392Z,1012
2016-11-11T13:16:25.565Z,1012
2016-11-11T13:17:28.670Z,1012
2016-11-11T13:18:31.800Z,1012
2016-11-11T13:19:34.924Z,1012
2016-11-11T13:20:38.046Z,1012
2016-11-11T13:21:41.180Z,1012
2016-11-11T13:22:44.309Z,1012
2016-11-11T13:23:47.436Z,1012
2016-11-11T13:24:50.569Z,1012
2016-11-11T13:25:53.682Z,1012
2016-11-11T13:26:56.807Z,1012
2016-11-11T13:27:59.935Z,1012
2016-11-11T13:29:03.064Z,1013
2016-11-11T13:30:06.190Z,1013
2016-11-11T13:31:09.314Z,1013
2016-11-11T13:32:12.437Z,1013
2016-11-11T13:33:15.562Z,1013
2016-11-11T13:34:18.691Z,1013
2016-11-11T13:35:21.813Z,1013
2016-11-11T13:36:24.937Z,1013
2016-11-11T13:37:28.071Z,1013
2016-11-11T13:38:31.197Z,1013
2016-11-11T13:39:34.319Z,1013
2016-11-11T13:40:37.441Z,1013
2016-11-11T13:41:40.563Z,1013
2016-11-11T13:42:43.698Z,1013
2016-11-11T13:43:46.820Z,1013
2016-11-11T13:44:49.946Z,1013
2016-11-11T13:45:53.073Z,1013
2016-11-11T13:46:56.195Z,1013
2016-11-11T13:47:59.319Z,1013
2016-11-11T13:49:02.447Z,1013
2016-11-11T13:50:09.224Z,1013
2016-11-11T13:51:12.348Z,1013
2016-11-11T13:52:15.479Z,1013
2016-11-11T13:53:18.602Z,1013
2016-11-11T13:54:22.210Z,1013
2016-11-11T13:55:25.194Z,1013
2016-11-11T13:56:28.349Z,1013
2016-11-11T13:57:31.444Z,1013
2016-11-11T13:58:34.575Z,1013
2016-11-11T13:59:37.693Z,1013
2016-11-11T14:00:40.961Z,1013
2016-11-11T14:01:43.946Z,1013
2016-11-11T14:02:47.734Z,1013
2016-11-11T14:03:50.855Z,1013
2016-11-11T14:04:53.984Z,1013
2016-11-11T14:05:57.103Z,1013
2016-11-11T14:07:00.302Z,1013
2016-11-11T14:08:03.386Z,1013
2016-11-11T14:09:06.512Z,1013
2016-11-11T14:10:09.634Z,1013
2016-11-11T14:11:12.755Z,1013
2016-11-11T14:12:15.879Z,1013
2016-11-11T14:13:19.581Z,1013
2016-11-11T14:14:22.699Z,1013
2016-11-11T14:15:25.831Z,1013
2016-11-11T14:16:28.955Z,1013
2016-11-11T14:17:32.085Z,1013
2016-11-11T14:18:35.201Z,1013
2016-11-11T14:19:38.328Z,1013
2016-11-11T14:20:41.455Z,1013
2016-11-11T14:21:44.572Z,1013
2016-11-11T14:22:47.695Z,1013
2016-11-11T14:23:50.823Z,1013
2016-11-11T14:24:53.953Z,1013
2016-11-11T14:25:57.076Z,1013
2016-11-11T14:27:00.207Z,1013
2016-11-11T14:28:03.335Z,1013
2016-11-11T14:29:06.462Z,1013
2016-11-11T14:30:09.583Z,1013
2016-11-11T14:31:12.715Z,1013
2016-11-11T14:32:15.839Z,1013
2016-11-11T14:33:18.970Z,1013
2016-11-11T14:34:22.105Z,1013
2016-11-11T14:35:25.234Z,1013
2016-11-11T14:36:28.422Z,1013
2016-11-11T14:37:31.549Z,1013
2016-11-11T14:38:34.672Z,1013
2016-11-11T14:39:37.795Z,1013
2016-11-11T14:40:40.913Z,1014
2016-11-11T14:41:44.047Z,1014
2016-11-11T14:42:47.172Z,1014
2016-11-11T14:43:50.296Z,1014
2016-11-11T14:44:53.421Z,1013
2016-11-11T14:45:56.554Z,1013
2016-11-11T14:46:59.676Z,1014
2016-11-11T14:48:02.797Z,1014
2016-11-11T14:49:05.928Z,1014
2016-11-11T14:50:09.088Z,1014
2016-11-11T14:51:12.211Z,1014
2016-11-11T14:52:15.333Z,1013
2016-11-11T14:53:18.461Z,1014
2016-11-11T14:54:21.584Z,1014
2016-11-11T14:55:25.009Z,1014
2016-11-11T14:56:28.132Z,1014
2016-11-11T14:57:31.261Z,1014
2016-11-11T14:58:34.386Z,1014
2016-11-11T14:59:37.508Z,1014
2016-11-11T15:00:40.629Z,1014
2016-11-11T15:01:43.762Z,1014
2016-11-11T15:02:46.887Z,1014
2016-11-11T15:03:50.013Z,1014
2016-11-11T15:04:53.132Z,1014
2016-11-11T15:05:56.263Z,1014
2016-11-11T15:06:59.388Z,1014
2016-11-11T15:08:02.510Z,1014
2016-11-11T15:09:05.638Z,1014
2016-11-11T15:10:08.763Z,1014
2016-11-11T15:11:12.030Z,1014
2016-11-11T15:12:15.154Z,1014
2016-11-11T15:13:18.289Z,1014
2016-11-11T15:14:21.414Z,1014
2016-11-11T15:15:24.537Z,1014
2016-11-11T15:16:27.663Z,1014
2016-11-11T15:17:30.789Z,1014
2016-11-11T15:18:33.906Z,1014
2016-11-11T15:19:37.043Z,1014
2016-11-11T15:20:40.174Z,1014
2016-11-11T15:21:43.306Z,1014
2016-11-11T15:22:46.431Z,1014
2016-11-11T15:23:49.557Z,1014
2016-11-11T15:24:52.687Z,1014
2016-11-11T15:25:55.819Z,1014
2016-11-11T15:26:58.949Z,1014
2016-11-11T15:28:02.079Z,1014
2016-11-11T15:29:05.205Z,1014
2016-11-11T15:30:08.319Z,1014
2016-11-11T15:31:11.448Z,1014
2016-11-11T15:32:14.578Z,1014
2016-11-11T15:33:17.705Z,1014
2016-11-11T15:34:20.836Z,1014
2016-11-11T15:35:23.961Z,1014
2016-11-11T15:36:27.092Z,1014
2016-11-11T15:37:30.213Z,1014
2016-11-11T15:38:33.342Z,1014
2016-11-11T15:39:36.466Z,1014
2016-11-11T15:40:39.590Z,1014
2016-11-11T15:41:42.715Z,1014
2016-11-11T15:42:45.842Z,1014
2016-11-11T15:43:48.977Z,1014
2016-11-11T15:44:52.093Z,1014
2016-11-11T15:45:55.225Z,1014
2016-11-11T15:46:58.346Z,1014
2016-11-11T15:48:01.472Z,1014
2016-11-11T15:49:04.598Z,1014
2016-11-11T15:50:07.715Z,1014
2016-11-11T15:51:10.846Z,1014
2016-11-11T15:52:13.970Z,1014
2016-11-11T15:53:17.098Z,1014
2016-11-11T15:54:20.222Z,1014
2016-11-11T15:55:23.358Z,1014
2016-11-11T15:56:26.473Z,1014
2016-11-11T15:57:29.597Z,1014
2016-11-11T15:58:32.713Z,1014
2016-11-11T15:59:35.843Z,1014
2016-11-11T16:00:38.964Z,1014
2016-11-11T16:01:42.089Z,1015
2016-11-11T16:02:45.223Z,1014
2016-11-11T16:03:48.351Z,1015
2016-11-11T16:04:51.475Z,1015
2016-11-11T16:05:54.602Z,1015
2016-11-11T16:06:57.730Z,1015
2016-11-11T16:08:00.853Z,1015
2016-11-11T16:09:03.973Z,1015
2016-11-11T16:10:07.098Z,1015
2016-11-11T16:11:10.222Z,1015
2016-11-11T16:12:13.351Z,1015
2016-11-11T16:13:16.484Z,1015
2016-11-11T16:14:19.612Z,1015
2016-11-11T16:15:22.730Z,1015
2016-11-11T16:16:25.850Z,1015
2016-11-11T16:17:28.987Z,1015
2016-11-11T16:18:31.964Z,1015
2016-11-11T16:19:35.389Z,1015
2016-11-11T16:20:38.515Z,1015
2016-11-11T16:21:41.648Z,1015
2016-11-11T16:22:44.768Z,1015
2016-11-11T16:23:47.900Z,1015
2016-11-11T16:24:51.120Z,1015
2016-11-11T16:25:54.246Z,1015
2016-11-11T16:26:57.367Z,1015
2016-11-11T16:28:00.497Z,1015
2016-11-11T16:29:03.625Z,1015
2016-11-11T16:30:06.752Z,1015
2016-11-11T16:31:09.881Z,1015
2016-11-11T16:32:13.003Z,1015
2016-11-11T16:33:16.133Z,1015
2016-11-11T16:34:19.577Z,1015
2016-11-11T16:35:22.386Z,1015
2016-11-11T16:36:25.511Z,1015
2016-11-11T16:37:28.637Z,1015
2016-11-11T16:38:31.761Z,1015
2016-11-11T16:39:34.883Z,1015
2016-11-11T16:40:38.013Z,1015
2016-11-11T16:41:41.140Z,1015
2016-11-11T16:42:44.257Z,1015
2016-11-11T16:43:47.384Z,1015
2016-11-11T16:44:50.513Z,1015
2016-11-11T16:45:53.640Z,1015
2016-11-11T16:46:56.766Z,1015
2016-11-11T16:47:59.892Z,1015
2016-11-11T16:49:03.019Z,1015
2016-11-11T16:50:06.146Z,1015
2016-11-11T16:51:09.269Z,1015
2016-11-11T16:52:12.392Z,1015
2016-11-11T16:53:15.514Z,1015
2016-11-11T16:54:18.632Z,1015
2016-11-11T16:55:21.757Z,1015
2016-11-11T16:56:24.882Z,1015
2016-11-11T16:57:28.014Z,1015
2016-11-11T16:58:31.141Z,1015
2016-11-11T16:59:34.262Z,1015
2016-11-11T17:00:37.384Z,1015
2016-11-11T17:01:40.516Z,1015
2016-11-11T17:02:43.642Z,1015
2016-11-11T17:03:46.762Z,1015
2016-11-11T17:04:49.884Z,1015
2016-11-11T17:05:53.009Z,1015
2016-11-11T17:06:56.132Z,1015
2016-11-11T17:07:59.254Z,1015
2016-11-11T17:09:02.375Z,1015
2016-11-11T17:10:05.503Z,1015
2016-11-11T17:11:08.635Z,1015
2016-11-11T17:12:11.766Z,1015
2016-11-11T17:13:14.880Z,1015
2016-11-11T17:14:17.999Z,1015
2016-11-11T17:15:21.132Z,1015
2016-11-11T17:16:24.463Z,1015
2016-11-11T17:17:27.590Z,1015
2016-11-11T17:18:30.710Z,1015
2016-11-11T17:19:33.838Z,1015
2016-11-11T17:20:36.960Z,1015
2016-11-11T17:21:40.084Z,1015
2016-11-11T17:22:43.204Z,1015
2016-11-11T17:23:46.336Z,1015
2016-11-11T17:24:49.460Z,1015
2016-11-11T17:25:52.587Z,1015
2016-11-11T17:26:55.722Z,1015
2016-11-11T17:27:58.850Z,1015
2016-11-11T17:29:01.979Z,1015
2016-11-11T17:30:05.098Z,1015
2016-11-11T17:31:08.235Z,1015
2016-11-11T17:32:11.353Z,1015
2016-11-11T17:33:14.475Z,1015
2016-11-11T17:34:17.599Z,1015
2016-11-11T17:35:20.731Z,1015
2016-11-11T17:36:23.856Z,1015
2016-11-11T17:37:26.979Z,1015
2016-11-11T17:38:30.101Z,1015
2016-11-11T17:39:33.224Z,1015
2016-11-11T17:40:36.349Z,1015
2016-11-11T17:41:39.479Z,1015
2016-11-11T17:42:42.603Z,1016
2016-11-11T17:43:45.729Z,1015
2016-11-11T17:44:48.852Z,1015
2016-11-11T17:45:52.199Z,1016
2016-11-11T17:46:55.322Z,1016
2016-11-11T17:47:58.454Z,1016
2016-11-11T17:49:01.581Z,1016
2016-11-11T17:50:04.706Z,1016
2016-11-11T17:51:07.824Z,1016
2016-11-11T17:52:10.953Z,1016
2016-11-11T17:53:14.084Z,1016
2016-11-11T17:54:17.202Z,1016
2016-11-11T17:55:20.337Z,1016
2016-11-11T17:56:23.469Z,1016
2016-11-11T17:57:26.595Z,1016
2016-11-11T17:58:29.715Z,1016
2016-11-11T17:59:32.845Z,1016
2016-11-11T18:00:35.972Z,1016
2016-11-11T18:01:39.100Z,1016
2016-11-11T18:02:42.231Z,1016
2016-11-11T18:03:45.355Z,1016
2016-11-11T18:04:48.482Z,1016
2016-11-11T18:05:51.609Z,1016
2016-11-11T18:06:54.739Z,1016
2016-11-11T18:07:57.864Z,1016
2016-11-11T18:09:00.987Z,1016
2016-11-11T18:10:04.108Z,1016
2016-11-11T18:11:07.229Z,1016
2016-11-11T18:12:10.354Z,1016
2016-11-11T18:13:13.481Z,1016
2016-11-11T18:14:16.609Z,1016
2016-11-11T18:15:19.730Z,1016
2016-11-11T18:16:22.855Z,1016
2016-11-11T18:17:25.978Z,1016
2016-11-11T18:18:29.101Z,1016
2016-11-11T18:19:32.226Z,1016
2016-11-11T18:20:35.360Z,1016
2016-11-11T18:21:38.487Z,1016
2016-11-11T18:22:41.603Z,1016
2016-11-11T18:23:44.727Z,1016
2016-11-11T18:24:47.850Z,1016
2016-11-11T18:25:50.973Z,1016
2016-11-11T18:26:54.100Z,1016
2016-11-11T18:27:57.219Z,1016
2016-11-11T18:29:00.340Z,1016
2016-11-11T18:30:03.466Z,1016
2016-11-11T18:31:06.588Z,1016
2016-11-11T18:32:09.713Z,1016
2016-11-11T18:33:12.836Z,1016
2016-11-11T18:34:15.964Z,1016
2016-11-11T18:35:19.091Z,1016
2016-11-11T18:36:22.219Z,1016
2016-11-11T18:37:25.343Z,1016
2016-11-11T18:38:28.475Z,1016
2016-11-11T18:39:31.605Z,1016
2016-11-11T18:40:34.725Z,1016
2016-11-11T18:41:37.847Z,1016
2016-11-11T18:42:40.974Z,1016
2016-11-11T18:43:44.105Z,1016
2016-11-11T18:44:47.235Z,1016
2016-11-11T18:45:50.357Z,1016
2016-11-11T18:46:53.481Z,1016
2016-11-11T18:47:56.609Z,1016
2016-11-11T18:48:59.737Z,1016
2016-11-11T18:50:02.854Z,1016
2016-11-11T18:51:05.983Z,1016
2016-11-11T18:52:09.114Z,1016
2016-11-11T18:53:12.244Z,1017
2016-11-11T18:54:15.360Z,1016
2016-11-11T18:55:18.489Z,1016
2016-11-11T18:56:21.619Z,1016
2016-11-11T18:57:24.828Z,1016
2016-11-11T18:58:27.949Z,1016
2016-11-11T18:59:31.079Z,1016
2016-11-11T19:00:34.208Z,1017
2016-11-11T19:01:37.326Z,1016
2016-11-11T19:02:40.460Z,1017
2016-11-11T19:03:43.588Z,1016
2016-11-11T19:04:46.717Z,1016
2016-11-11T19:05:49.837Z,1017
2016-11-11T19:06:52.965Z,1016
2016-11-11T19:07:56.090Z,1017
2016-11-11T19:08:59.219Z,1017
2016-11-11T19:10:02.340Z,1017
2016-11-11T19:11:05.468Z,1017
2016-11-11T19:12:08.597Z,1017
2016-11-11T19:13:11.716Z,1017
2016-11-11T19:14:14.842Z,1017
2016-11-11T19:15:17.964Z,1017
2016-11-11T19:16:21.091Z,1017
2016-11-11T19:17:24.213Z,1017
2016-11-11T19:18:27.345Z,1017
2016-11-11T19:19:30.471Z,1017
2016-11-11T19:20:33.606Z,1017
2016-11-11T19:21:36.723Z,1017
2016-11-11T19:22:39.847Z,1017
2016-11-11T19:23:42.973Z,1017
2016-11-11T19:24:46.089Z,1017
2016-11-11T19:25:49.212Z,1017
2016-11-11T19:26:52.442Z,1017
2016-11-11T19:27:55.470Z,1017
2016-11-11T19:28:58.596Z,1017
2016-11-11T19:30:01.734Z,1017
2016-11-11T19:31:04.859Z,1017
2016-11-11T19:32:07.976Z,1017
2016-11-11T19:33:11.103Z,1017
2016-11-11T19:34:14.233Z,1017
2016-11-11T19:35:17.367Z,1017
2016-11-11T19:36:20.492Z,1017
2016-11-11T19:37:23.618Z,1017
2016-11-11T19:38:26.741Z,1017
2016-11-11T19:39:29.872Z,1017
2016-11-11T19:40:32.999Z,1017
2016-11-11T19:41:36.124Z,1017
2016-11-11T19:42:39.240Z,1017
2016-11-11T19:43:42.367Z,1017
2016-11-11T19:44:45.493Z,1017
2016-11-11T19:45:48.614Z,1017
2016-11-11T19:46:51.748Z,1017
2016-11-11T19:47:54.874Z,1017
2016-11-11T19:48:58.000Z,1017
2016-11-11T19:50:01.122Z,1017
2016-11-11T19:51:04.243Z,1017
2016-11-11T19:52:07.369Z,1017
2016-11-11T19:53:10.493Z,1017
2016-11-11T19:54:13.615Z,1017
2016-11-11T19:55:16.743Z,1017
2016-11-11T19:56:19.874Z,1017
2016-11-11T19:57:23.001Z,1017
2016-11-11T19:58:26.129Z,1017
2016-11-11T19:59:29.253Z,1017
2016-11-11T20:00:32.379Z,1017
2016-11-11T20:01:35.502Z,1017
2016-11-11T20:02:38.629Z,1017
2016-11-11T20:03:41.761Z,1017
2016-11-11T20:04:44.884Z,1017
2016-11-11T20:05:48.009Z,1017
2016-11-11T20:06:51.143Z,1017
2016-11-11T20:07:54.273Z,1017
2016-11-11T20:08:57.401Z,1017
2016-11-11T20:10:00.531Z,1017
2016-11-11T20:11:03.656Z,1017
2016-11-11T20:12:06.790Z,1017
2016-11-11T20:13:09.915Z,1017
2016-11-11T20:14:13.035Z,1017
2016-11-11T20:15:16.163Z,1017
2016-11-11T20:16:19.296Z,1017
2016-11-11T20:17:22.431Z,1017
2016-11-11T20:18:25.549Z,1017
2016-11-11T20:19:28.671Z,1017
2016-11-11T20:20:31.796Z,1017
2016-11-11T20:21:34.920Z,1017
2016-11-11T20:22:38.039Z,1017
2016-11-11T20:23:41.172Z,1017
2016-11-11T20:24:44.305Z,1017
2016-11-11T20:25:47.430Z,1017
2016-11-11T20:26:50.565Z,1017
2016-11-11T20:27:53.694Z,1017
2016-11-11T20:28:56.826Z,1017
2016-11-11T20:29:59.943Z,1017
2016-11-11T20:31:03.083Z,1017
2016-11-11T20:32:06.202Z,1017
2016-11-11T20:33:09.332Z,1017
2016-11-11T20:34:12.452Z,1017
2016-11-11T20:35:15.593Z,1017
2016-11-11T20:36:18.717Z,1017
2016-11-11T20:37:21.847Z,1017
2016-11-11T20:38:24.974Z,1017
2016-11-11T20:39:28.100Z,1017
2016-11-11T20:40:31.236Z,1017
2016-11-11T20:41:34.355Z,1017
2016-11-11T20:42:37.482Z,1017
2016-11-11T20:43:40.610Z,1017
2016-11-11T20:44:43.743Z,1017
2016-11-11T20:45:46.871Z,1018
2016-11-11T20:46:49.999Z,1017
2016-11-11T20:47:53.129Z,1017
2016-11-11T20:48:56.249Z,1017
2016-11-11T20:49:59.376Z,1017
2016-11-11T20:51:02.502Z,1017
2016-11-11T20:52:05.636Z,1017
2016-11-11T20:53:08.763Z,1017
2016-11-11T20:54:11.758Z,1018
2016-11-11T20:55:14.888Z,1017
2016-11-11T20:56:18.020Z,1017
2016-11-11T20:57:21.133Z,1018
2016-11-11T20:58:24.260Z,1018
2016-11-11T20:59:27.386Z,1018
2016-11-11T21:00:30.514Z,1018
2016-11-11T21:01:33.647Z,1018
2016-11-11T21:02:36.771Z,1017
2016-11-11T21:03:39.896Z,1018
2016-11-11T21:04:43.028Z,1018
2016-11-11T21:05:46.163Z,1018
2016-11-11T21:06:49.292Z,1018
2016-11-11T21:07:52.418Z,1018
2016-11-11T21:08:55.547Z,1018
2016-11-11T21:09:58.672Z,1018
2016-11-11T21:11:01.803Z,1018
2016-11-11T21:12:04.936Z,1018
2016-11-11T21:13:08.058Z,1018
2016-11-11T21:14:11.182Z,1017
2016-11-11T21:15:14.314Z,1018
2016-11-11T21:16:17.438Z,1018
2016-11-11T21:17:20.561Z,1018
2016-11-11T21:18:23.685Z,1017
2016-11-11T21:19:26.815Z,1018
2016-11-11T21:20:29.939Z,1018
2016-11-11T21:21:33.067Z,1018
2016-11-11T21:22:36.197Z,1018
2016-11-11T21:23:39.326Z,1018
2016-11-11T21:24:42.462Z,1018
2016-11-11T21:25:45.587Z,1018
2016-11-11T21:26:48.719Z,1018
2016-11-11T21:27:51.850Z,1018
2016-11-11T21:28:54.971Z,1018
2016-11-11T21:29:58.094Z,1018
2016-11-11T21:31:01.226Z,1018
2016-11-11T21:32:04.356Z,1017
2016-11-11T21:33:07.489Z,1017
2016-11-11T21:34:10.614Z,1018
2016-11-11T21:35:13.746Z,1018
2016-11-11T21:36:16.876Z,1018
2016-11-11T21:37:20.011Z,1018
2016-11-11T21:38:23.140Z,1018
2016-11-11T21:39:26.262Z,1018
2016-11-11T21:40:29.386Z,1018
2016-11-11T21:41:32.509Z,1018
2016-11-11T21:42:35.632Z,1018
2016-11-11T21:43:38.765Z,1018
2016-11-11T21:44:41.892Z,1018
2016-11-11T21:45:45.012Z,1018
2016-11-11T21:46:48.134Z,1018
2016-11-11T21:47:51.263Z,1018
2016-11-11T21:48:54.389Z,1018
2016-11-11T21:49:57.510Z,1018
2016-11-11T21:51:00.645Z,1018
2016-11-11T21:52:03.778Z,1018
2016-11-11T21:53:06.908Z,1018
2016-11-11T21:54:10.029Z,1018
2016-11-11T21:55:13.160Z,1018
2016-11-11T21:56:16.287Z,1017
2016-11-11T21:57:19.414Z,1018
2016-11-11T21:58:22.542Z,1017
2016-11-11T21:59:25.672Z,1018
2016-11-11T22:00:28.796Z,1018
2016-11-11T22:01:31.926Z,1018
2016-11-11T22:02:35.053Z,1018
2016-11-11T22:03:38.186Z,1018
2016-11-11T22:04:41.318Z,1017
2016-11-11T22:05:44.439Z,1018
2016-11-11T22:06:47.570Z,1018
2016-11-11T22:07:50.696Z,1018
2016-11-11T22:08:53.835Z,1018
2016-11-11T22:09:56.957Z,1018
2016-11-11T22:11:00.086Z,1018
2016-11-11T22:12:03.219Z,1018
2016-11-11T22:13:06.335Z,1018
2016-11-11T22:14:09.459Z,1017
2016-11-11T22:15:12.590Z,1018
2016-11-11T22:16:15.720Z,1018
2016-11-11T22:17:18.846Z,1018
2016-11-11T22:18:21.979Z,1018
2016-11-11T22:19:25.107Z,1018
2016-11-11T22:20:28.236Z,1018
2016-11-11T22:21:31.361Z,1018
2016-11-11T22:22:34.494Z,1018
2016-11-11T22:23:37.618Z,1017
2016-11-11T22:24:40.746Z,1018
2016-11-11T22:25:43.867Z,1018
2016-11-11T22:26:46.999Z,1017
2016-11-11T22:27:50.131Z,1017
2016-11-11T22:28:53.263Z,1018
2016-11-11T22:29:56.388Z,1018
2016-11-11T22:30:59.508Z,1017
2016-11-11T22:32:02.642Z,1018
2016-11-11T22:33:05.770Z,1017
2016-11-11T22:34:08.895Z,1017
2016-11-11T22:35:12.025Z,1017
2016-11-11T22:36:15.154Z,1018
2016-11-11T22:37:18.289Z,1017
2016-11-11T22:38:21.412Z,1017
2016-11-11T22:39:24.531Z,1017
2016-11-11T22:40:27.662Z,1017
2016-11-11T22:41:30.788Z,1018
2016-11-11T22:42:33.917Z,1017
2016-11-11T22:43:37.038Z,1017
2016-11-11T22:44:40.160Z,1018
2016-11-11T22:45:43.292Z,1017
2016-11-11T22:46:46.427Z,1017
2016-11-11T22:47:49.563Z,1017
2016-11-11T22:48:52.696Z,1018
2016-11-11T22:49:55.825Z,1018
2016-11-11T22:50:58.957Z,1018
2016-11-11T22:52:02.087Z,1018
2016-11-11T22:53:05.206Z,1018
2016-11-11T22:54:08.330Z,1017
2016-11-11T22:55:11.462Z,1018
2016-11-11T22:56:14.589Z,1018
2016-11-11T22:57:17.715Z,1018
2016-11-11T22:58:20.848Z,1018
2016-11-11T22:59:23.981Z,1018
2016-11-11T23:00:27.115Z,1018
2016-11-11T23:01:30.242Z,1018
2016-11-11T23:02:33.378Z,1018
2016-11-11T23:03:36.502Z,1018
2016-11-11T23:04:39.623Z,1018
2016-11-11T23:05:42.758Z,1018
2016-11-11T23:06:45.885Z,1018
2016-11-11T23:07:49.010Z,1018
2016-11-11T23:08:52.144Z,1018
2016-11-11T23:09:55.276Z,1018
2016-11-11T23:10:58.404Z,1018
2016-11-11T23:12:01.530Z,1018
2016-11-11T23:13:04.667Z,1018